This is the latest recevied weather packets stored in our database for station/object VK4SSH. If no packets are shown the sender has not sent any weather packets the latest 10 day(s).
| Time | Temp. | Humidity | Pressure | Rain* | Wind** | Luminosity | Snow |
|---|---|---|---|---|---|---|---|
| 1777358725 | 21.67° C | 75% | - | 0 mm | - | - | - |
| 1777358125 | 21.67° C | 77% | - | 0 mm | - | - | - |
| 1777357525 | 21.67° C | 79% | - | 0 mm | - | - | - |
| 1777356925 | 21.67° C | 78% | - | 0 mm | - | - | - |
| 1777356325 | 21.67° C | 82% | - | 0 mm | - | - | - |
| 1777355725 | 21.67° C | 85% | - | 0 mm | - | - | - |
| 1777355125 | 21.67° C | 86% | - | 0 mm | - | - | - |
| 1777354525 | 21.67° C | 85% | - | 0 mm | - | - | - |
| 1777353925 | 21.11° C | 87% | - | 0 mm | - | - | - |
| 1777353325 | 21.11° C | 88% | - | 0 mm | - | - | - |
| 1777352725 | 21.11° C | 87% | - | 0 mm | - | - | - |
| 1777352125 | 21.11° C | 87% | - | 0 mm | - | - | - |
| 1777351525 | 21.11° C | 89% | - | 0 mm | - | - | - |
| 1777350925 | 20.56° C | 88% | - | 0 mm | - | - | - |
| 1777350325 | 20.56° C | 89% | - | 2.03 mm | - | - | - |
| 1777349725 | 20° C | 91% | - | 2.03 mm | - | - | - |
| 1777349125 | 19.44° C | 93% | - | 2.03 mm | - | - | - |
| 1777348525 | 19.44° C | 92% | - | 2.03 mm | - | - | - |
| 1777347925 | 20.56° C | 92% | - | 2.03 mm | - | - | - |
| 1777347325 | 22.22° C | 87% | - | 2.03 mm | - | - | - |
| 1777346725 | 23.33° C | 71% | - | 0 mm | - | - | - |
| 1777346137 | 22.78° C | 72% | - | 0 mm | - | - | - |
| 1777345525 | 22.78° C | 72% | - | 0 mm | - | - | - |
| 1777344925 | 22.78° C | 72% | - | 0 mm | - | - | - |
| 1777344325 | 22.22° C | 76% | - | 0 mm | - | - | - |
* Rain latest hour (hover to see other rain measurements)
** Current wind speed in m/s (hover to see current wind gust speed)